Route Details

Aircraft Information
Group: North America Fleet
Types: B738, B752, B762, B763
Route Data
Distance: 640nm
Duration: 2h 14m
Origin METAR: KLAL 100555Z AUTO 31005KT 10SM OVC002 17/17 A3012 RMK AO2 T01700170 10202 20170
Dest. METAR: KSDF 100556Z 24004KT 1SM BR BKN002 BKN045 08/08 A3015 RMK AO2 TWR VIS 3 SLP212 VIS S-W 1/2 T00830078 10106 20083 51002 RVRNO $
Freight Data
(for Dec 10, 2022)
Load Factor:
50%
Manifested Cargo: 26,882lbs
Financial History
Total Freight: 72,002lbs
Average Load: 0lbs/flt
Fuel Used: 26,570lbs
Avg. Fuel Used: 0lbs/flt
Fuel Expense: $16,852
Avg. Fuel Expense: $0
Avg. Fuel Cost: $0/lbs
Total Gross Income: $183,605
Pilot Pay: $438
Total Expenses: $41,275
Total Revenue: $124,070
Average Revenue: $0

Capitol Logistics 478




KLAL
Lakeland Linder Regional Airport
Lakeland, Florida
KSDF
Muhammad Ali International Airport
Louisville, Kentucky

Activity Log

Date Flight Route Aircraft Duration
11/26/2022 CPX478 DCT NITTS DCT WILON DCT CAMJO DCT AMG DCT VXV DCT DARBY MAUDD6 B762 2h 00m
07/21/2022 CPX478 DCT NITTS DCT WILON DCT CAMJO DCT AMG DCT VXV DCT DARBY MAUDD6 B763 1h 56m